sensor_id;sensor_type;location;lat;lon;timestamp;temperature;humidity
49413;DHT22;35493;50.276;9.372;2024-01-06T00:02:06;5.30;86.90
49413;DHT22;35493;50.276;9.372;2024-01-06T00:04:39;5.30;86.80
49413;DHT22;35493;50.276;9.372;2024-01-06T00:07:12;5.40;86.90
49413;DHT22;35493;50.276;9.372;2024-01-06T00:09:46;5.40;86.80
49413;DHT22;35493;50.276;9.372;2024-01-06T00:12:19;5.40;86.90
49413;DHT22;35493;50.276;9.372;2024-01-06T00:14:54;5.40;86.90
49413;DHT22;35493;50.276;9.372;2024-01-06T00:17:27;5.40;87.00
49413;DHT22;35493;50.276;9.372;2024-01-06T00:20:00;5.40;87.20
49413;DHT22;35493;50.276;9.372;2024-01-06T00:22:34;5.40;87.30
49413;DHT22;35493;50.276;9.372;2024-01-06T00:25:08;5.50;87.30
49413;DHT22;35493;50.276;9.372;2024-01-06T00:27:40;5.50;87.20
49413;DHT22;35493;50.276;9.372;2024-01-06T00:30:15;5.60;87.20
49413;DHT22;35493;50.276;9.372;2024-01-06T00:32:55;5.50;87.20
49413;DHT22;35493;50.276;9.372;2024-01-06T00:35:28;5.50;87.20
49413;DHT22;35493;50.276;9.372;2024-01-06T00:38:01;5.50;87.30
49413;DHT22;35493;50.276;9.372;2024-01-06T00:40:34;5.50;87.20
49413;DHT22;35493;50.276;9.372;2024-01-06T00:43:07;5.60;87.30
49413;DHT22;35493;50.276;9.372;2024-01-06T00:45:42;5.60;87.30
49413;DHT22;35493;50.276;9.372;2024-01-06T00:48:15;5.60;87.40
49413;DHT22;35493;50.276;9.372;2024-01-06T00:50:48;5.60;87.20
49413;DHT22;35493;50.276;9.372;2024-01-06T00:53:21;5.70;87.30
49413;DHT22;35493;50.276;9.372;2024-01-06T00:55:54;5.70;87.30
49413;DHT22;35493;50.276;9.372;2024-01-06T00:58:27;5.60;87.30
49413;DHT22;35493;50.276;9.372;2024-01-06T01:01:02;5.70;87.40
49413;DHT22;35493;50.276;9.372;2024-01-06T01:03:35;5.70;87.40
49413;DHT22;35493;50.276;9.372;2024-01-06T01:06:08;5.70;87.40
49413;DHT22;35493;50.276;9.372;2024-01-06T01:08:41;5.70;87.30
49413;DHT22;35493;50.276;9.372;2024-01-06T01:11:14;5.70;87.30
49413;DHT22;35493;50.276;9.372;2024-01-06T01:13:47;5.70;87.40
49413;DHT22;35493;50.276;9.372;2024-01-06T01:16:22;5.70;87.50
49413;DHT22;35493;50.276;9.372;2024-01-06T01:18:55;5.70;87.30
49413;DHT22;35493;50.276;9.372;2024-01-06T01:21:27;5.80;87.40
49413;DHT22;35493;50.276;9.372;2024-01-06T01:24:00;5.80;87.40
49413;DHT22;35493;50.276;9.372;2024-01-06T01:26:34;5.70;87.40
49413;DHT22;35493;50.276;9.372;2024-01-06T01:29:07;5.80;87.40
49413;DHT22;35493;50.276;9.372;2024-01-06T01:31:42;5.70;87.40
49413;DHT22;35493;50.276;9.372;2024-01-06T01:34:15;5.70;87.40
49413;DHT22;35493;50.276;9.372;2024-01-06T01:36:49;5.70;87.40
49413;DHT22;35493;50.276;9.372;2024-01-06T01:39:22;5.70;87.40
49413;DHT22;35493;50.276;9.372;2024-01-06T01:41:55;5.70;87.30
49413;DHT22;35493;50.276;9.372;2024-01-06T01:44:22;5.70;87.30
49413;DHT22;35493;50.276;9.372;2024-01-06T01:46:57;5.70;87.30
49413;DHT22;35493;50.276;9.372;2024-01-06T01:49:30;5.70;87.20
49413;DHT22;35493;50.276;9.372;2024-01-06T01:52:04;5.70;87.20
49413;DHT22;35493;50.276;9.372;2024-01-06T01:54:36;5.70;87.30
49413;DHT22;35493;50.276;9.372;2024-01-06T01:57:10;5.70;87.30
49413;DHT22;35493;50.276;9.372;2024-01-06T01:59:43;5.70;87.20
49413;DHT22;35493;50.276;9.372;2024-01-06T02:02:18;5.60;87.20
49413;DHT22;35493;50.276;9.372;2024-01-06T02:04:51;5.60;87.30
49413;DHT22;35493;50.276;9.372;2024-01-06T02:07:24;5.60;87.30
49413;DHT22;35493;50.276;9.372;2024-01-06T02:09:57;5.60;87.40
49413;DHT22;35493;50.276;9.372;2024-01-06T02:12:30;5.60;87.50
49413;DHT22;35493;50.276;9.372;2024-01-06T02:15:04;5.60;87.50
49413;DHT22;35493;50.276;9.372;2024-01-06T02:17:39;5.60;87.60
49413;DHT22;35493;50.276;9.372;2024-01-06T02:20:13;5.60;87.60
49413;DHT22;35493;50.276;9.372;2024-01-06T02:22:48;5.70;87.60
49413;DHT22;35493;50.276;9.372;2024-01-06T02:25:21;5.70;87.60
49413;DHT22;35493;50.276;9.372;2024-01-06T02:27:54;5.70;87.60
49413;DHT22;35493;50.276;9.372;2024-01-06T02:30:27;5.60;87.60
49413;DHT22;35493;50.276;9.372;2024-01-06T02:33:00;5.70;87.70
49413;DHT22;35493;50.276;9.372;2024-01-06T02:35:33;5.70;87.70
49413;DHT22;35493;50.276;9.372;2024-01-06T02:38:09;5.70;87.80
49413;DHT22;35493;50.276;9.372;2024-01-06T02:40:42;5.70;87.80
49413;DHT22;35493;50.276;9.372;2024-01-06T02:43:15;5.70;87.80
49413;DHT22;35493;50.276;9.372;2024-01-06T02:45:48;5.70;87.70
49413;DHT22;35493;50.276;9.372;2024-01-06T02:48:21;5.70;87.70
49413;DHT22;35493;50.276;9.372;2024-01-06T02:50:54;5.70;87.80
49413;DHT22;35493;50.276;9.372;2024-01-06T02:53:29;5.70;87.80
49413;DHT22;35493;50.276;9.372;2024-01-06T02:56:02;5.70;87.70
49413;DHT22;35493;50.276;9.372;2024-01-06T02:58:34;5.70;87.80
49413;DHT22;35493;50.276;9.372;2024-01-06T03:01:07;5.70;87.80
49413;DHT22;35493;50.276;9.372;2024-01-06T03:03:40;5.70;87.70
49413;DHT22;35493;50.276;9.372;2024-01-06T03:06:13;5.70;87.70
49413;DHT22;35493;50.276;9.372;2024-01-06T03:08:41;5.70;87.70
49413;DHT22;35493;50.276;9.372;2024-01-06T03:11:14;5.70;87.70
49413;DHT22;35493;50.276;9.372;2024-01-06T03:13:47;5.70;87.60
49413;DHT22;35493;50.276;9.372;2024-01-06T03:16:20;5.70;87.60
49413;DHT22;35493;50.276;9.372;2024-01-06T03:18:53;5.80;87.50
49413;DHT22;35493;50.276;9.372;2024-01-06T03:21:26;5.70;87.50
49413;DHT22;35493;50.276;9.372;2024-01-06T03:24:01;5.70;87.60
49413;DHT22;35493;50.276;9.372;2024-01-06T03:26:33;5.70;87.60
49413;DHT22;35493;50.276;9.372;2024-01-06T03:29:06;5.70;87.70
49413;DHT22;35493;50.276;9.372;2024-01-06T03:31:41;5.70;87.70
49413;DHT22;35493;50.276;9.372;2024-01-06T03:41:25;5.80;87.40
49413;DHT22;35493;50.276;9.372;2024-01-06T03:43:59;5.80;87.40
49413;DHT22;35493;50.276;9.372;2024-01-06T03:46:33;5.80;87.40
49413;DHT22;35493;50.276;9.372;2024-01-06T03:49:06;5.80;87.40
49413;DHT22;35493;50.276;9.372;2024-01-06T03:51:38;5.80;87.30
49413;DHT22;35493;50.276;9.372;2024-01-06T03:54:12;5.80;87.20
49413;DHT22;35493;50.276;9.372;2024-01-06T03:56:46;5.70;87.30
49413;DHT22;35493;50.276;9.372;2024-01-06T03:59:18;5.80;87.20
49413;DHT22;35493;50.276;9.372;2024-01-06T04:01:45;5.80;87.30
49413;DHT22;35493;50.276;9.372;2024-01-06T04:04:19;5.80;87.30
49413;DHT22;35493;50.276;9.372;2024-01-06T04:06:53;5.90;87.30
49413;DHT22;35493;50.276;9.372;2024-01-06T04:09:32;5.80;87.20
49413;DHT22;35493;50.276;9.372;2024-01-06T04:12:07;5.80;87.20
49413;DHT22;35493;50.276;9.372;2024-01-06T04:14:41;5.90;87.30
49413;DHT22;35493;50.276;9.372;2024-01-06T04:17:07;5.90;87.30
49413;DHT22;35493;50.276;9.372;2024-01-06T04:19:40;5.90;87.20
49413;DHT22;35493;50.276;9.372;2024-01-06T04:22:13;5.90;87.40
49413;DHT22;35493;50.276;9.372;2024-01-06T04:24:46;5.80;87.30
49413;DHT22;35493;50.276;9.372;2024-01-06T04:27:21;5.90;87.40
49413;DHT22;35493;50.276;9.372;2024-01-06T04:29:48;5.80;87.40
49413;DHT22;35493;50.276;9.372;2024-01-06T04:32:24;5.80;87.40
49413;DHT22;35493;50.276;9.372;2024-01-06T04:34:57;5.80;87.40
49413;DHT22;35493;50.276;9.372;2024-01-06T04:37:37;5.80;87.40
49413;DHT22;35493;50.276;9.372;2024-01-06T04:40:17;5.80;87.40
49413;DHT22;35493;50.276;9.372;2024-01-06T04:42:52;5.90;87.50
49413;DHT22;35493;50.276;9.372;2024-01-06T04:45:25;5.80;87.40
49413;DHT22;35493;50.276;9.372;2024-01-06T04:47:58;5.80;87.50
49413;DHT22;35493;50.276;9.372;2024-01-06T04:50:31;5.80;87.50
49413;DHT22;35493;50.276;9.372;2024-01-06T04:53:04;5.80;87.60
49413;DHT22;35493;50.276;9.372;2024-01-06T04:55:37;5.80;87.60
49413;DHT22;35493;50.276;9.372;2024-01-06T04:58:12;5.90;87.60
49413;DHT22;35493;50.276;9.372;2024-01-06T05:00:46;5.80;87.50
49413;DHT22;35493;50.276;9.372;2024-01-06T05:03:18;5.90;87.50
49413;DHT22;35493;50.276;9.372;2024-01-06T05:05:52;5.80;87.50
49413;DHT22;35493;50.276;9.372;2024-01-06T05:08:32;5.80;87.50
49413;DHT22;35493;50.276;9.372;2024-01-06T05:11:05;5.80;87.50
49413;DHT22;35493;50.276;9.372;2024-01-06T05:13:39;5.80;87.50
49413;DHT22;35493;50.276;9.372;2024-01-06T05:16:13;5.90;87.60
49413;DHT22;35493;50.276;9.372;2024-01-06T05:18:39;5.80;87.60
49413;DHT22;35493;50.276;9.372;2024-01-06T05:21:13;5.80;87.60
49413;DHT22;35493;50.276;9.372;2024-01-06T05:23:46;5.90;87.60
49413;DHT22;35493;50.276;9.372;2024-01-06T05:26:18;5.90;87.60
49413;DHT22;35493;50.276;9.372;2024-01-06T05:28:53;5.90;87.60
49413;DHT22;35493;50.276;9.372;2024-01-06T05:31:27;5.90;87.60
49413;DHT22;35493;50.276;9.372;2024-01-06T05:34:00;5.90;87.50
49413;DHT22;35493;50.276;9.372;2024-01-06T05:36:33;5.90;87.50
49413;DHT22;35493;50.276;9.372;2024-01-06T05:39:06;5.90;87.50
49413;DHT22;35493;50.276;9.372;2024-01-06T05:41:39;5.90;87.50
49413;DHT22;35493;50.276;9.372;2024-01-06T05:44:13;5.90;87.60
49413;DHT22;35493;50.276;9.372;2024-01-06T05:46:53;5.80;87.60
49413;DHT22;35493;50.276;9.372;2024-01-06T05:49:26;5.80;87.70
49413;DHT22;35493;50.276;9.372;2024-01-06T05:51:59;5.80;87.70
49413;DHT22;35493;50.276;9.372;2024-01-06T05:54:32;5.80;87.70
49413;DHT22;35493;50.276;9.372;2024-01-06T05:57:05;5.80;87.60
49413;DHT22;35493;50.276;9.372;2024-01-06T05:59:39;5.80;87.60
49413;DHT22;35493;50.276;9.372;2024-01-06T06:02:13;5.80;87.60
49413;DHT22;35493;50.276;9.372;2024-01-06T06:04:46;5.80;87.70
49413;DHT22;35493;50.276;9.372;2024-01-06T06:07:19;5.80;87.70
49413;DHT22;35493;50.276;9.372;2024-01-06T06:09:52;5.80;87.60
49413;DHT22;35493;50.276;9.372;2024-01-06T06:12:26;5.90;87.60
49413;DHT22;35493;50.276;9.372;2024-01-06T06:15:00;5.80;87.70
49413;DHT22;35493;50.276;9.372;2024-01-06T06:17:35;5.80;87.50
49413;DHT22;35493;50.276;9.372;2024-01-06T06:20:08;5.90;87.70
49413;DHT22;35493;50.276;9.372;2024-01-06T06:22:41;5.90;87.70
49413;DHT22;35493;50.276;9.372;2024-01-06T06:25:14;5.80;87.60
49413;DHT22;35493;50.276;9.372;2024-01-06T06:27:47;5.80;87.60
49413;DHT22;35493;50.276;9.372;2024-01-06T06:30:21;5.80;87.60
49413;DHT22;35493;50.276;9.372;2024-01-06T06:32:55;5.80;87.60
49413;DHT22;35493;50.276;9.372;2024-01-06T06:35:28;5.90;87.60
49413;DHT22;35493;50.276;9.372;2024-01-06T06:38:01;5.90;87.60
49413;DHT22;35493;50.276;9.372;2024-01-06T06:40:34;5.90;87.50
49413;DHT22;35493;50.276;9.372;2024-01-06T06:43:07;5.90;87.70
49413;DHT22;35493;50.276;9.372;2024-01-06T06:45:42;5.90;87.70
49413;DHT22;35493;50.276;9.372;2024-01-06T06:48:16;5.90;87.70
49413;DHT22;35493;50.276;9.372;2024-01-06T06:50:49;5.90;87.70
49413;DHT22;35493;50.276;9.372;2024-01-06T06:53:22;5.90;87.70
49413;DHT22;35493;50.276;9.372;2024-01-06T06:55:55;5.80;87.80
49413;DHT22;35493;50.276;9.372;2024-01-06T06:58:28;5.90;87.60
49413;DHT22;35493;50.276;9.372;2024-01-06T07:01:02;5.80;87.60
49413;DHT22;35493;50.276;9.372;2024-01-06T07:03:36;5.80;87.70
49413;DHT22;35493;50.276;9.372;2024-01-06T07:06:11;5.90;87.80
49413;DHT22;35493;50.276;9.372;2024-01-06T07:08:45;5.80;87.60
49413;DHT22;35493;50.276;9.372;2024-01-06T07:11:18;5.90;87.60
49413;DHT22;35493;50.276;9.372;2024-01-06T07:14:05;5.90;87.60
49413;DHT22;35493;50.276;9.372;2024-01-06T07:16:40;5.90;87.60
49413;DHT22;35493;50.276;9.372;2024-01-06T07:19:21;5.80;87.70
49413;DHT22;35493;50.276;9.372;2024-01-06T07:21:54;5.90;87.60
49413;DHT22;35493;50.276;9.372;2024-01-06T07:24:27;5.80;87.70
49413;DHT22;35493;50.276;9.372;2024-01-06T07:27:00;5.80;87.70
49413;DHT22;35493;50.276;9.372;2024-01-06T07:29:33;5.80;87.70
49413;DHT22;35493;50.276;9.372;2024-01-06T07:32:07;5.80;87.80
49413;DHT22;35493;50.276;9.372;2024-01-06T07:34:40;5.80;87.80
49413;DHT22;35493;50.276;9.372;2024-01-06T07:37:13;5.80;87.70
49413;DHT22;35493;50.276;9.372;2024-01-06T07:39:46;5.80;87.80
49413;DHT22;35493;50.276;9.372;2024-01-06T07:42:19;5.80;87.80
49413;DHT22;35493;50.276;9.372;2024-01-06T07:44:52;5.80;87.70
49413;DHT22;35493;50.276;9.372;2024-01-06T07:47:26;5.80;87.70
49413;DHT22;35493;50.276;9.372;2024-01-06T07:49:53;5.90;87.90
49413;DHT22;35493;50.276;9.372;2024-01-06T07:52:26;5.90;87.90
49413;DHT22;35493;50.276;9.372;2024-01-06T07:54:59;5.90;87.90
49413;DHT22;35493;50.276;9.372;2024-01-06T07:57:32;5.90;87.90
49413;DHT22;35493;50.276;9.372;2024-01-06T07:59:58;5.90;87.80
49413;DHT22;35493;50.276;9.372;2024-01-06T08:02:40;5.90;87.70
49413;DHT22;35493;50.276;9.372;2024-01-06T08:05:14;6.00;87.70
49413;DHT22;35493;50.276;9.372;2024-01-06T08:07:47;6.00;87.70
49413;DHT22;35493;50.276;9.372;2024-01-06T08:10:20;5.90;87.70
49413;DHT22;35493;50.276;9.372;2024-01-06T08:12:54;6.00;87.60
49413;DHT22;35493;50.276;9.372;2024-01-06T08:15:27;5.90;87.70
49413;DHT22;35493;50.276;9.372;2024-01-06T08:18:01;6.00;87.70
49413;DHT22;35493;50.276;9.372;2024-01-06T08:20:35;5.90;87.60
49413;DHT22;35493;50.276;9.372;2024-01-06T08:23:08;5.90;87.50
49413;DHT22;35493;50.276;9.372;2024-01-06T08:25:42;5.90;87.50
49413;DHT22;35493;50.276;9.372;2024-01-06T08:28:15;5.90;87.50
49413;DHT22;35493;50.276;9.372;2024-01-06T08:30:50;5.90;87.50
49413;DHT22;35493;50.276;9.372;2024-01-06T08:33:24;6.00;87.30
49413;DHT22;35493;50.276;9.372;2024-01-06T08:35:58;6.00;87.30
49413;DHT22;35493;50.276;9.372;2024-01-06T08:38:32;6.00;87.40
49413;DHT22;35493;50.276;9.372;2024-01-06T08:41:05;6.00;87.30
49413;DHT22;35493;50.276;9.372;2024-01-06T08:43:38;5.90;87.30
49413;DHT22;35493;50.276;9.372;2024-01-06T08:46:11;6.00;87.30
49413;DHT22;35493;50.276;9.372;2024-01-06T08:48:45;6.00;87.30
49413;DHT22;35493;50.276;9.372;2024-01-06T08:51:19;6.00;87.20
49413;DHT22;35493;50.276;9.372;2024-01-06T08:53:52;6.00;87.10
49413;DHT22;35493;50.276;9.372;2024-01-06T08:56:25;6.10;87.20
49413;DHT22;35493;50.276;9.372;2024-01-06T08:58:59;6.10;87.10
49413;DHT22;35493;50.276;9.372;2024-01-06T09:01:32;6.10;87.10
49413;DHT22;35493;50.276;9.372;2024-01-06T09:04:09;6.00;87.10
49413;DHT22;35493;50.276;9.372;2024-01-06T09:06:43;6.10;87.20
49413;DHT22;35493;50.276;9.372;2024-01-06T09:09:17;6.00;87.10
49413;DHT22;35493;50.276;9.372;2024-01-06T09:11:43;6.10;87.10
49413;DHT22;35493;50.276;9.372;2024-01-06T09:14:18;6.10;87.20
49413;DHT22;35493;50.276;9.372;2024-01-06T09:16:51;6.10;87.10
49413;DHT22;35493;50.276;9.372;2024-01-06T09:19:25;6.10;87.20
49413;DHT22;35493;50.276;9.372;2024-01-06T09:22:00;6.10;87.10
49413;DHT22;35493;50.276;9.372;2024-01-06T09:24:33;6.20;87.10
49413;DHT22;35493;50.276;9.372;2024-01-06T09:27:06;6.10;86.90
49413;DHT22;35493;50.276;9.372;2024-01-06T09:29:39;6.20;86.90
49413;DHT22;35493;50.276;9.372;2024-01-06T09:32:12;6.20;86.90
49413;DHT22;35493;50.276;9.372;2024-01-06T09:34:47;6.20;86.90
49413;DHT22;35493;50.276;9.372;2024-01-06T09:37:21;6.20;86.80
49413;DHT22;35493;50.276;9.372;2024-01-06T09:39:54;6.30;86.70
49413;DHT22;35493;50.276;9.372;2024-01-06T09:42:27;6.30;86.70
49413;DHT22;35493;50.276;9.372;2024-01-06T09:45:00;6.30;86.70
49413;DHT22;35493;50.276;9.372;2024-01-06T09:47:33;6.30;86.50
49413;DHT22;35493;50.276;9.372;2024-01-06T09:50:09;6.40;86.40
49413;DHT22;35493;50.276;9.372;2024-01-06T09:52:43;6.50;86.30
49413;DHT22;35493;50.276;9.372;2024-01-06T09:55:10;6.50;86.30
49413;DHT22;35493;50.276;9.372;2024-01-06T09:57:44;6.60;86.20
49413;DHT22;35493;50.276;9.372;2024-01-06T10:00:18;6.60;86.10
49413;DHT22;35493;50.276;9.372;2024-01-06T10:02:52;6.60;86.00
49413;DHT22;35493;50.276;9.372;2024-01-06T10:05:26;6.60;86.20
49413;DHT22;35493;50.276;9.372;2024-01-06T10:08:00;6.60;86.00
49413;DHT22;35493;50.276;9.372;2024-01-06T10:10:36;6.60;86.00
49413;DHT22;35493;50.276;9.372;2024-01-06T10:13:10;6.70;85.80
49413;DHT22;35493;50.276;9.372;2024-01-06T10:15:43;6.70;85.70
49413;DHT22;35493;50.276;9.372;2024-01-06T10:18:16;6.70;85.60
49413;DHT22;35493;50.276;9.372;2024-01-06T10:20:50;6.80;85.60
49413;DHT22;35493;50.276;9.372;2024-01-06T10:23:25;6.80;85.50
49413;DHT22;35493;50.276;9.372;2024-01-06T10:25:59;6.80;85.50
49413;DHT22;35493;50.276;9.372;2024-01-06T10:28:32;6.80;85.50
49413;DHT22;35493;50.276;9.372;2024-01-06T10:31:05;6.80;85.40
49413;DHT22;35493;50.276;9.372;2024-01-06T10:33:38;6.90;85.40
49413;DHT22;35493;50.276;9.372;2024-01-06T10:36:06;6.90;85.40
49413;DHT22;35493;50.276;9.372;2024-01-06T10:38:53;6.80;85.40
49413;DHT22;35493;50.276;9.372;2024-01-06T10:41:34;6.80;85.50
49413;DHT22;35493;50.276;9.372;2024-01-06T10:44:09;6.80;85.50
49413;DHT22;35493;50.276;9.372;2024-01-06T10:46:42;6.80;85.40
49413;DHT22;35493;50.276;9.372;2024-01-06T10:49:17;6.80;85.50
49413;DHT22;35493;50.276;9.372;2024-01-06T10:51:51;6.90;85.40
49413;DHT22;35493;50.276;9.372;2024-01-06T10:54:25;6.90;85.40
49413;DHT22;35493;50.276;9.372;2024-01-06T10:57:00;6.80;85.30
49413;DHT22;35493;50.276;9.372;2024-01-06T10:59:34;6.80;85.30
49413;DHT22;35493;50.276;9.372;2024-01-06T11:02:07;6.80;85.30
49413;DHT22;35493;50.276;9.372;2024-01-06T11:04:41;6.80;85.30
49413;DHT22;35493;50.276;9.372;2024-01-06T11:07:17;6.80;85.60
49413;DHT22;35493;50.276;9.372;2024-01-06T11:09:58;6.80;85.30
49413;DHT22;35493;50.276;9.372;2024-01-06T11:12:31;6.80;85.10
49413;DHT22;35493;50.276;9.372;2024-01-06T11:15:05;6.90;85.00
49413;DHT22;35493;50.276;9.372;2024-01-06T11:17:50;7.00;85.10
49413;DHT22;35493;50.276;9.372;2024-01-06T11:20:25;7.00;85.10
49413;DHT22;35493;50.276;9.372;2024-01-06T11:23:17;7.00;84.90
49413;DHT22;35493;50.276;9.372;2024-01-06T11:25:50;7.00;85.00
49413;DHT22;35493;50.276;9.372;2024-01-06T11:28:26;7.00;85.00
49413;DHT22;35493;50.276;9.372;2024-01-06T11:31:05;7.00;85.10
49413;DHT22;35493;50.276;9.372;2024-01-06T11:33:40;7.10;84.90
49413;DHT22;35493;50.276;9.372;2024-01-06T11:36:14;7.10;84.80
49413;DHT22;35493;50.276;9.372;2024-01-06T11:38:48;7.20;84.70
49413;DHT22;35493;50.276;9.372;2024-01-06T11:44:11;7.20;84.50
49413;DHT22;35493;50.276;9.372;2024-01-06T11:46:44;7.30;84.50
49413;DHT22;35493;50.276;9.372;2024-01-06T11:49:18;7.30;84.40
49413;DHT22;35493;50.276;9.372;2024-01-06T11:51:53;7.40;84.50
49413;DHT22;35493;50.276;9.372;2024-01-06T11:54:27;7.30;84.30
49413;DHT22;35493;50.276;9.372;2024-01-06T11:57:01;7.30;84.30
49413;DHT22;35493;50.276;9.372;2024-01-06T11:59:34;7.20;84.40
49413;DHT22;35493;50.276;9.372;2024-01-06T12:02:10;7.20;84.40
49413;DHT22;35493;50.276;9.372;2024-01-06T12:04:43;7.20;84.50
49413;DHT22;35493;50.276;9.372;2024-01-06T12:07:21;7.20;84.50
49413;DHT22;35493;50.276;9.372;2024-01-06T12:10:01;7.30;84.40
49413;DHT22;35493;50.276;9.372;2024-01-06T12:12:35;7.30;84.30
49413;DHT22;35493;50.276;9.372;2024-01-06T12:15:08;7.40;84.40
49413;DHT22;35493;50.276;9.372;2024-01-06T12:17:42;7.40;84.20
49413;DHT22;35493;50.276;9.372;2024-01-06T12:20:15;7.50;84.10
49413;DHT22;35493;50.276;9.372;2024-01-06T12:22:48;7.50;84.00
49413;DHT22;35493;50.276;9.372;2024-01-06T12:25:22;7.50;84.20
49413;DHT22;35493;50.276;9.372;2024-01-06T12:27:56;7.50;84.00
49413;DHT22;35493;50.276;9.372;2024-01-06T12:30:29;7.50;83.90
49413;DHT22;35493;50.276;9.372;2024-01-06T12:33:03;7.50;83.90
49413;DHT22;35493;50.276;9.372;2024-01-06T12:35:37;7.50;84.00
49413;DHT22;35493;50.276;9.372;2024-01-06T12:38:11;7.40;84.10
49413;DHT22;35493;50.276;9.372;2024-01-06T12:40:45;7.40;84.00
49413;DHT22;35493;50.276;9.372;2024-01-06T12:43:19;7.40;84.30
49413;DHT22;35493;50.276;9.372;2024-01-06T12:45:52;7.50;84.30
49413;DHT22;35493;50.276;9.372;2024-01-06T12:48:25;7.40;84.10
49413;DHT22;35493;50.276;9.372;2024-01-06T12:50:59;7.50;84.20
49413;DHT22;35493;50.276;9.372;2024-01-06T12:53:32;7.50;84.10
49413;DHT22;35493;50.276;9.372;2024-01-06T12:56:06;7.50;84.20
49413;DHT22;35493;50.276;9.372;2024-01-06T12:58:40;7.50;84.00
49413;DHT22;35493;50.276;9.372;2024-01-06T13:01:13;7.50;84.10
49413;DHT22;35493;50.276;9.372;2024-01-06T13:03:46;7.50;84.10
49413;DHT22;35493;50.276;9.372;2024-01-06T13:06:19;7.50;84.20
49413;DHT22;35493;50.276;9.372;2024-01-06T13:08:52;7.40;84.20
49413;DHT22;35493;50.276;9.372;2024-01-06T13:11:26;7.40;84.30
49413;DHT22;35493;50.276;9.372;2024-01-06T13:14:00;7.40;84.30
49413;DHT22;35493;50.276;9.372;2024-01-06T13:16:40;7.40;84.30
49413;DHT22;35493;50.276;9.372;2024-01-06T13:19:13;7.40;84.20
49413;DHT22;35493;50.276;9.372;2024-01-06T13:21:46;7.40;84.00
49413;DHT22;35493;50.276;9.372;2024-01-06T13:24:19;7.30;84.20
49413;DHT22;35493;50.276;9.372;2024-01-06T13:26:53;7.30;84.50
49413;DHT22;35493;50.276;9.372;2024-01-06T13:29:27;7.30;84.40
49413;DHT22;35493;50.276;9.372;2024-01-06T13:32:00;7.30;84.40
49413;DHT22;35493;50.276;9.372;2024-01-06T13:34:33;7.30;84.60
49413;DHT22;35493;50.276;9.372;2024-01-06T13:37:06;7.30;84.40
49413;DHT22;35493;50.276;9.372;2024-01-06T13:39:39;7.30;84.50
49413;DHT22;35493;50.276;9.372;2024-01-06T13:42:13;7.30;84.60
49413;DHT22;35493;50.276;9.372;2024-01-06T13:44:47;7.40;84.50
49413;DHT22;35493;50.276;9.372;2024-01-06T13:47:20;7.40;84.60
49413;DHT22;35493;50.276;9.372;2024-01-06T13:49:53;7.40;84.60
49413;DHT22;35493;50.276;9.372;2024-01-06T13:52:28;7.40;84.60
49413;DHT22;35493;50.276;9.372;2024-01-06T13:55:01;7.30;84.70
49413;DHT22;35493;50.276;9.372;2024-01-06T13:57:35;7.30;84.60
49413;DHT22;35493;50.276;9.372;2024-01-06T14:00:09;7.30;84.70
49413;DHT22;35493;50.276;9.372;2024-01-06T14:02:46;7.30;84.70
49413;DHT22;35493;50.276;9.372;2024-01-06T14:05:19;7.20;84.50
49413;DHT22;35493;50.276;9.372;2024-01-06T14:07:52;7.30;84.60
49413;DHT22;35493;50.276;9.372;2024-01-06T14:10:25;7.30;84.60
49413;DHT22;35493;50.276;9.372;2024-01-06T14:12:59;7.30;84.60
49413;DHT22;35493;50.276;9.372;2024-01-06T14:15:33;7.40;84.50
49413;DHT22;35493;50.276;9.372;2024-01-06T14:18:07;7.40;84.50
49413;DHT22;35493;50.276;9.372;2024-01-06T14:20:42;7.40;84.60
49413;DHT22;35493;50.276;9.372;2024-01-06T14:23:15;7.40;84.40
49413;DHT22;35493;50.276;9.372;2024-01-06T14:25:48;7.40;84.40
49413;DHT22;35493;50.276;9.372;2024-01-06T14:28:22;7.40;84.40
49413;DHT22;35493;50.276;9.372;2024-01-06T14:30:55;7.40;84.50
49413;DHT22;35493;50.276;9.372;2024-01-06T14:33:28;7.40;84.50
49413;DHT22;35493;50.276;9.372;2024-01-06T14:36:03;7.40;84.40
49413;DHT22;35493;50.276;9.372;2024-01-06T14:38:37;7.50;84.40
49413;DHT22;35493;50.276;9.372;2024-01-06T14:41:10;7.40;84.60
49413;DHT22;35493;50.276;9.372;2024-01-06T14:43:44;7.40;84.70
49413;DHT22;35493;50.276;9.372;2024-01-06T14:46:17;7.40;84.60
49413;DHT22;35493;50.276;9.372;2024-01-06T14:48:50;7.30;84.90
49413;DHT22;35493;50.276;9.372;2024-01-06T14:51:24;7.30;84.80
49413;DHT22;35493;50.276;9.372;2024-01-06T14:53:50;7.30;84.80
49413;DHT22;35493;50.276;9.372;2024-01-06T14:56:24;7.30;84.90
49413;DHT22;35493;50.276;9.372;2024-01-06T14:58:59;7.30;85.00
49413;DHT22;35493;50.276;9.372;2024-01-06T15:01:33;7.30;84.90
49413;DHT22;35493;50.276;9.372;2024-01-06T15:04:06;7.40;85.00
49413;DHT22;35493;50.276;9.372;2024-01-06T15:06:39;7.30;85.10
49413;DHT22;35493;50.276;9.372;2024-01-06T15:09:12;7.30;85.10
49413;DHT22;35493;50.276;9.372;2024-01-06T15:11:45;7.30;85.20
49413;DHT22;35493;50.276;9.372;2024-01-06T15:14:19;7.30;85.20
49413;DHT22;35493;50.276;9.372;2024-01-06T15:16:53;7.30;85.30
49413;DHT22;35493;50.276;9.372;2024-01-06T15:19:26;7.20;85.30
49413;DHT22;35493;50.276;9.372;2024-01-06T15:22:01;7.20;85.30
49413;DHT22;35493;50.276;9.372;2024-01-06T15:24:33;7.30;85.30
49413;DHT22;35493;50.276;9.372;2024-01-06T15:27:06;7.20;85.30
49413;DHT22;35493;50.276;9.372;2024-01-06T15:29:40;7.20;85.40
49413;DHT22;35493;50.276;9.372;2024-01-06T15:32:14;7.20;85.40
49413;DHT22;35493;50.276;9.372;2024-01-06T15:34:47;7.20;85.40
49413;DHT22;35493;50.276;9.372;2024-01-06T15:37:20;7.30;85.50
49413;DHT22;35493;50.276;9.372;2024-01-06T15:39:53;7.20;85.40
49413;DHT22;35493;50.276;9.372;2024-01-06T15:42:26;7.20;85.40
49413;DHT22;35493;50.276;9.372;2024-01-06T15:45:00;7.30;85.40
49413;DHT22;35493;50.276;9.372;2024-01-06T15:47:33;7.30;85.50
49413;DHT22;35493;50.276;9.372;2024-01-06T15:50:06;7.30;85.50
49413;DHT22;35493;50.276;9.372;2024-01-06T15:52:40;7.30;85.40
49413;DHT22;35493;50.276;9.372;2024-01-06T15:55:15;7.20;85.50
49413;DHT22;35493;50.276;9.372;2024-01-06T15:57:48;7.30;85.60
49413;DHT22;35493;50.276;9.372;2024-01-06T16:00:22;7.30;85.50
49413;DHT22;35493;50.276;9.372;2024-01-06T16:02:56;7.30;85.50
49413;DHT22;35493;50.276;9.372;2024-01-06T16:05:31;7.30;85.50
49413;DHT22;35493;50.276;9.372;2024-01-06T16:08:04;7.30;85.60
49413;DHT22;35493;50.276;9.372;2024-01-06T16:10:38;7.30;85.70
49413;DHT22;35493;50.276;9.372;2024-01-06T16:13:12;7.20;85.70
49413;DHT22;35493;50.276;9.372;2024-01-06T16:15:46;7.20;85.80
49413;DHT22;35493;50.276;9.372;2024-01-06T16:18:13;7.20;85.90
49413;DHT22;35493;50.276;9.372;2024-01-06T16:20:53;7.20;85.80
49413;DHT22;35493;50.276;9.372;2024-01-06T16:23:26;7.20;85.80
49413;DHT22;35493;50.276;9.372;2024-01-06T16:25:59;7.20;85.80
49413;DHT22;35493;50.276;9.372;2024-01-06T16:28:32;7.20;85.90
49413;DHT22;35493;50.276;9.372;2024-01-06T16:31:06;7.20;86.00
49413;DHT22;35493;50.276;9.372;2024-01-06T16:33:40;7.20;86.00
49413;DHT22;35493;50.276;9.372;2024-01-06T16:36:13;7.20;86.10